Last 7 Days

Abernathy 1 (AB1)

Hourly Data | America/Los_Angeles
as of 2/19/19 1:58 PM PST
Date Time Temp (°F) RH (%) Dew Pt (°F) Wind Spd (mph) Wind Dir (°) Wind Gust (mph) Wind Gst Dir (°) Latest Rain (In) Solar Rad Tot Hr (Cal/cm2) Daily Rain (In) Daily Min Temp (°F) Daily Max Temp (°F) Day
2/19/19 1300 55.8 35 28.6 4.8 S | 171 10.8 S | 179 0.00 50 0.00 33.8 56.9 2/19/19
2/19/19 1200 55.0 34 27.4 3.3 ESE | 108 9.8 NE | 53 0.00 49 0.00 33.8 56.3 2/19/19
2/19/19 1100 53.2 35 26.4 3.4 N | 6 7.4 NNW | 331 0.00 43 0.00 33.8 54.7 2/19/19
2/19/19 1000 49.9 41 27.2 7.0 N | 352 11.3 N | 349 0.00 33 0.00 33.8 51.7 2/19/19
2/19/19 0900 45.8 48 27.3 4.2 NNW | 341 11.0 N | 7 0.00 20 0.00 33.8 48.3 2/19/19
2/19/19 0800 40.6 54 25.2 3.8 NNW | 331 8.0 NW | 320 0.00 6 0.00 33.8 42.5 2/19/19
2/19/19 0700 39.5 54 24.1 5.4 N | 350 9.1 N | 0 0.00 0 0.00 33.8 41.8 2/19/19
2/19/19 0600 38.5 56 24.4 1.5 NW | 323 5.1 NW | 319 0.00 0 0.00 33.8 41.8 2/19/19
2/19/19 0500 38.8 57 24.8 2.6 WNW | 298 5.9 WNW | 295 0.00 0 0.00 33.8 41.8 2/19/19
2/19/19 0400 39.0 56 24.7 1.9 NW | 321 6.3 NW | 308 0.00 0 0.00 33.8 41.8 2/19/19
2/19/19 0300 36.2 67 26.1 1.2 W | 264 4.1 W | 270 0.00 0 0.00 33.8 41.8 2/19/19
2/19/19 0200 37.6 63 26.3 2.4 NNW | 332 4.3 NNW | 340 0.00 0 0.00 35.3 41.8 2/19/19
2/19/19 0100 39.6 58 25.9 2.1 WNW | 301 4.9 WNW | 295 0.00 0 0.00 38.4 41.8 2/19/19
2/19/19 0000 38.3 61 26.1 1.8 W | 274 5.9 NW | 306 0.00 0 0.00 34.0 56.4 2/18/19
2/18/19 2300 38.4 64 27.2 2.2 WNW | 290 5.1 WSW | 249 0.00 0 0.00 34.0 56.4 2/18/19
2/18/19 2200 38.6 66 28.0 2.2 WNW | 295 3.9 SW | 236 0.00 0 0.00 34.0 56.4 2/18/19
2/18/19 2100 39.3 65 28.7 2.3 NW | 321 5.3 WNW | 287 0.00 0 0.00 34.0 56.4 2/18/19
2/18/19 2000 44.4 48 26.1 1.9 NW | 320 3.8 NNW | 337 0.00 0 0.00 34.0 56.4 2/18/19
2/18/19 1900 45.5 51 28.6 1.4 WNW | 292 5.4 W | 272 0.00 0 0.00 34.0 56.4 2/18/19
2/18/19 1800 51.4 40 27.7 2.3 N | 351 5.8 NNW | 346 0.00 3 0.00 34.0 56.4 2/18/19
2/18/19 1700 54.2 33 25.5 6.5 N | 4 13.0 NNE | 23 0.00 16 0.00 34.0 56.4 2/18/19
2/18/19 1600 55.0 32 25.7 8.8 N | 349 14.6 NNW | 347 0.00 29 0.00 34.0 56.4 2/18/19
2/18/19 1500 55.5 32 26.0 9.4 NNW | 339 17.5 NW | 323 0.00 40 0.00 34.0 56.4 2/18/19
2/18/19 1400 55.7 31 25.5 8.8 N | 349 15.0 N | 354 0.00 48 0.00 34.0 56.4 2/18/19
2/18/19 1300 54.5 34 27.0 9.1 NNW | 342 14.6 NNW | 346 0.00 50 0.00 34.0 55.6 2/18/19
2/18/19 1200 53.3 36 27.3 8.9 NNW | 342 15.0 NNW | 339 0.00 49 0.00 34.0 54.1 2/18/19
2/18/19 1100 51.6 38 26.7 8.1 NNW | 336 14.3 NNW | 336 0.00 43 0.00 34.0 52.9 2/18/19
2/18/19 1000 49.7 41 26.8 7.5 NNW | 348 16.0 NW | 323 0.00 33 0.00 34.0 50.6 2/18/19
2/18/19 0900 47.0 43 25.4 2.8 NNW | 341 8.1 NNW | 345 0.00 20 0.00 34.0 49.1 2/18/19
2/18/19 0800 42.5 47 23.5 2.5 NNW | 330 7.4 NNW | 340 0.00 6 0.00 34.0 44.9 2/18/19
2/18/19 0700 41.1 49 23.6 2.4 WNW | 302 6.1 WNW | 284 0.00 0 0.00 34.0 43.5 2/18/19
2/18/19 0600 42.3 48 24.0 4.1 WNW | 294 9.8 WNW | 292 0.00 0 0.00 34.0 43.5 2/18/19
2/18/19 0500 42.3 48 24.2 4.4 NW | 315 10.8 NNW | 339 0.00 0 0.00 34.0 43.5 2/18/19
2/18/19 0400 41.7 51 24.9 4.4 NW | 314 12.6 WNW | 299 0.00 0 0.00 34.0 43.5 2/18/19
2/18/19 0300 39.6 59 26.5 3.3 WNW | 282 10.8 NW | 322 0.00 0 0.00 34.0 41.5 2/18/19
2/18/19 0200 36.9 72 28.6 3.3 WSW | 243 6.3 SW | 220 0.00 0 0.00 34.0 38.0 2/18/19
2/18/19 0100 35.0 84 30.7 1.9 SW | 228 4.3 SW | 228 0.00 0 0.00 34.0 36.4 2/18/19
2/18/19 0000 35.3 86 31.6 0.7 WSW | 244 4.1 NNW | 331 0.00 0 0.06 34.1 53.6 2/17/19
2/17/19 2300 36.2 86 32.3 2.1 WSW | 258 3.9 NNW | 345 0.00 0 0.06 35.4 53.6 2/17/19
2/17/19 2200 39.2 80 33.4 1.5 WNW | 293 4.1 W | 261 0.00 0 0.06 37.0 53.6 2/17/19
2/17/19 2100 40.3 80 34.4 2.9 N | 358 7.8 NNE | 16 0.00 0 0.06 37.0 53.6 2/17/19
2/17/19 2000 38.5 87 35.0 1.1 W | 280 4.8 WNW | 292 0.00 0 0.06 37.2 53.6 2/17/19
2/17/19 1900 40.6 84 36.0 2.1 NNW | 331 5.1 NNE | 13 0.00 0 0.06 38.4 53.6 2/17/19
2/17/19 1800 44.6 78 38.2 1.4 NNW | 338 5.1 WSW | 250 0.00 1 0.06 39.2 53.6 2/17/19
2/17/19 1700 47.3 73 39.1 3.8 N | 6 8.6 NE | 51 0.00 3 0.06 39.2 53.6 2/17/19
2/17/19 1600 48.4 71 39.4 5.8 NE | 49 10.0 ENE | 76 0.00 14 0.06 39.2 53.6 2/17/19
2/17/19 1500 49.6 65 38.5 5.2 E | 92 11.0 NE | 52 0.03 18 0.06 39.2 53.6 2/17/19
2/17/19 1400 50.5 59 36.9 6.7 E | 79 12.3 E | 90 0.00 18 0.03 39.2 53.6 2/17/19
2/17/19 1300 52.3 57 37.3 6.4 NNE | 21 14.3 N | 3 0.00 40 0.03 39.2 53.6 2/17/19
2/17/19 1200 51.6 55 36.0 2.7 W | 278 8.4 WNW | 293 0.00 49 0.03 39.2 53.0 2/17/19
2/17/19 1100 49.2 65 37.9 2.0 SSE | 157 6.8 ESE | 117 0.00 42 0.03 39.2 50.8 2/17/19
2/17/19 1000 46.8 69 37.2 1.3 NNW | 332 8.4 SSW | 210 0.00 32 0.03 39.2 48.4 2/17/19
2/17/19 0900 43.7 76 36.5 2.8 NW | 322 5.8 N | 0 0.00 20 0.03 39.2 45.6 2/17/19
2/17/19 0800 40.7 82 35.5 3.2 NW | 320 10.8 WNW | 300 0.00 5 0.03 39.2 43.2 2/17/19
2/17/19 0700 40.6 86 36.6 4.7 WNW | 285 10.5 WNW | 291 0.01 0 0.03 39.2 43.2 2/17/19
2/17/19 0600 41.0 88 37.8 2.3 S | 175 7.6 WSW | 240 0.00 0 0.02 39.2 43.2 2/17/19
2/17/19 0500 40.5 88 37.3 2.6 WSW | 256 8.6 WSW | 253 0.00 0 0.02 39.4 43.2 2/17/19
2/17/19 0400 41.0 84 36.6 2.4 NNE | 16 13.2 NW | 318 0.02 0 0.02 39.4 43.2 2/17/19
2/17/19 0300 42.6 76 35.4 2.4 SW | 229 8.4 WNW | 285 0.00 0 0.00 40.4 43.2 2/17/19
2/17/19 0200 42.6 74 34.9 6.0 W | 280 11.6 WNW | 295 0.00 0 0.00 40.4 43.1 2/17/19
2/17/19 0100 42.0 75 34.6 6.8 WNW | 291 13.8 WNW | 291 0.00 0 0.00 40.4 43.0 2/17/19
2/17/19 0000 41.5 75 34.2 4.4 NW | 304 9.3 W | 274 0.00 0 0.08 38.1 55.2 2/16/19
2/16/19 2300 42.2 74 34.4 5.3 NW | 309 14.5 WNW | 295 0.00 0 0.08 38.1 55.2 2/16/19
2/16/19 2200 43.4 71 34.8 8.7 WNW | 292 14.6 WNW | 302 0.00 0 0.08 38.1 55.2 2/16/19
2/16/19 2100 44.3 70 35.2 3.8 WNW | 302 13.2 NW | 322 0.00 0 0.08 38.1 55.2 2/16/19
2/16/19 2000 45.5 70 36.1 7.4 W | 279 15.7 WNW | 293 0.00 0 0.08 38.1 55.2 2/16/19
2/16/19 1900 46.3 68 36.5 5.7 W | 280 11.6 W | 272 0.00 0 0.08 38.1 55.2 2/16/19
2/16/19 1800 48.5 64 37.1 6.0 W | 260 15.0 W | 267 0.00 2 0.08 38.1 55.2 2/16/19
2/16/19 1700 51.4 64 39.8 6.9 WSW | 258 15.2 WSW | 249 0.00 17 0.08 38.1 55.2 2/16/19
2/16/19 1600 49.7 73 41.3 7.4 WSW | 248 11.5 WSW | 250 0.00 30 0.08 38.1 55.2 2/16/19
2/16/19 1500 47.8 76 40.6 8.0 W | 275 19.7 W | 265 0.02 18 0.08 38.1 55.2 2/16/19
2/16/19 1400 51.9 70 42.6 8.8 W | 268 16.5 SW | 230 0.01 37 0.06 38.1 55.2 2/16/19
2/16/19 1300 53.5 59 39.6 11.4 WSW | 254 20.0 SW | 224 0.00 38 0.05 38.1 55.2 2/16/19
2/16/19 1200 52.4 60 38.8 9.6 W | 271 17.7 WSW | 249 0.00 41 0.05 38.1 53.9 2/16/19
2/16/19 1100 51.3 67 40.7 5.7 WNW | 303 13.2 WNW | 303 0.00 36 0.05 38.1 52.8 2/16/19
2/16/19 1000 48.4 72 40.0 2.8 WNW | 284 9.8 NW | 307 0.00 12 0.05 38.1 49.4 2/16/19
2/16/19 0900 47.0 77 40.3 5.2 SSW | 196 11.1 SW | 217 0.00 20 0.05 38.1 49.2 2/16/19
2/16/19 0800 42.4 88 39.2 6.9 SW | 226 12.0 SSW | 201 0.00 5 0.05 38.1 44.6 2/16/19
2/16/19 0700 41.8 89 38.8 6.8 WSW | 240 11.8 WSW | 252 0.00 0 0.05 38.1 43.2 2/16/19
2/16/19 0600 42.3 89 39.3 6.5 WSW | 254 12.1 WSW | 242 0.00 0 0.05 38.1 43.2 2/16/19
2/16/19 0500 42.7 92 40.6 7.3 WSW | 249 12.6 WSW | 248 0.01 0 0.05 38.1 43.2 2/16/19
2/16/19 0400 39.3 96 38.3 1.4 WSW | 258 6.8 WSW | 245 0.00 0 0.04 38.1 42.0 2/16/19
2/16/19 0300 39.2 95 38.0 0.3 NNE | 25 2.2 NE | 38 0.00 0 0.04 38.3 42.0 2/16/19
2/16/19 0200 40.6 95 39.3 0.4 W | 278 3.1 SSW | 195 0.00 0 0.04 39.6 42.0 2/16/19
2/16/19 0100 41.6 95 40.2 1.5 N | 349 5.4 NNE | 26 0.04 0 0.04 41.1 42.0 2/16/19
2/16/19 0000 41.5 93 39.8 1.0 NE | 52 5.3 NNW | 331 0.02 0 0.23 40.1 53.0 2/15/19
2/15/19 2300 41.3 90 38.6 2.2 NNW | 330 8.3 NNW | 346 0.00 0 0.21 40.1 53.0 2/15/19
2/15/19 2200 42.0 87 38.3 2.3 WSW | 239 4.4 WSW | 245 0.00 0 0.21 40.8 53.0 2/15/19
2/15/19 2100 42.1 86 38.3 3.6 WSW | 242 6.3 WNW | 298 0.00 0 0.21 40.8 53.0 2/15/19
2/15/19 2000 43.6 81 38.1 3.6 WSW | 244 6.8 WSW | 242 0.00 0 0.21 42.0 53.0 2/15/19
2/15/19 1900 44.9 79 38.7 4.8 SW | 235 7.4 WSW | 243 0.00 0 0.21 42.4 53.0 2/15/19
2/15/19 1800 47.0 76 39.8 5.8 WSW | 240 11.6 SSW | 211 0.00 2 0.21 42.4 53.0 2/15/19
2/15/19 1700 48.3 71 39.2 5.4 SW | 222 12.5 W | 275 0.00 10 0.21 42.4 53.0 2/15/19
2/15/19 1600 47.2 72 38.6 9.8 SW | 234 20.9 WSW | 248 0.01 16 0.21 42.4 53.0 2/15/19
2/15/19 1500 49.7 71 40.6 8.6 WSW | 240 15.8 WSW | 256 0.01 16 0.20 42.4 53.0 2/15/19
2/15/19 1400 49.7 73 41.4 6.6 WSW | 241 13.5 SW | 232 0.00 37 0.19 42.4 52.8 2/15/19
2/15/19 1300 46.6 80 40.7 5.0 W | 263 16.0 WSW | 244 0.01 24 0.19 42.4 49.8 2/15/19
2/15/19 1200 46.8 79 40.4 6.8 W | 267 21.7 WNW | 290 0.07 20 0.18 42.4 49.8 2/15/19
2/15/19 1100 45.1 82 39.8 7.6 WSW | 241 16.0 WNW | 284 0.06 20 0.11 42.4 49.6 2/15/19
2/15/19 1000 48.0 74 40.2 5.3 SSW | 202 20.5 WNW | 293 0.01 14 0.05 42.4 49.6 2/15/19
2/15/19 0900 47.0 70 37.9 7.1 SSW | 208 18.5 SW | 231 0.00 6 0.04 42.4 48.1 2/15/19
2/15/19 0800 45.8 77 38.8 5.5 SW | 217 15.3 SW | 214 0.00 3 0.04 42.4 48.0 2/15/19
2/15/19 0700 43.8 80 38.0 2.7 SW | 233 5.3 SSW | 208 0.00 0 0.04 42.4 46.7 2/15/19
2/15/19 0600 45.8 77 39.0 5.3 SW | 233 12.1 SW | 228 0.00 0 0.04 43.7 46.7 2/15/19
2/15/19 0500 45.7 78 39.2 8.2 SW | 219 13.6 SSW | 193 0.00 0 0.04 43.7 46.7 2/15/19
2/15/19 0400 44.6 81 39.2 10.1 WSW | 238 24.0 SW | 217 0.01 0 0.04 43.7 46.7 2/15/19
2/15/19 0300 45.1 80 39.3 6.0 WSW | 243 21.0 WSW | 244 0.00 0 0.03 44.3 46.7 2/15/19
2/15/19 0200 45.7 82 40.6 8.7 SW | 229 20.2 SSW | 202 0.01 0 0.03 45.0 46.7 2/15/19
2/15/19 0100 46.0 87 42.5 7.3 SW | 230 15.7 SW | 223 0.02 0 0.02 45.6 46.5 2/15/19
2/15/19 0000 46.7 89 43.6 8.1 WSW | 246 16.0 W | 268 0.02 0 1.02 45.9 58.1 2/14/19
2/14/19 2300 47.6 90 44.9 8.6 SW | 222 16.5 WSW | 241 0.08 0 1.00 46.9 58.1 2/14/19
2/14/19 2200 50.0 80 43.9 10.1 SSW | 211 16.3 SW | 232 0.10 0 0.92 47.5 58.1 2/14/19
2/14/19 2100 50.9 72 42.3 7.1 SSW | 201 16.2 S | 181 0.00 0 0.82 48.4 58.1 2/14/19
2/14/19 2000 49.9 74 41.8 5.1 SSW | 192 12.8 SSW | 209 0.00 0 0.82 48.4 58.1 2/14/19
2/14/19 1900 50.6 74 42.5 6.6 SW | 220 16.0 SSW | 200 0.01 0 0.82 48.4 58.1 2/14/19
2/14/19 1800 52.3 71 43.2 6.1 SSW | 205 14.3 SSW | 202 0.00 1 0.81 49.4 58.1 2/14/19
2/14/19 1700 54.3 69 44.3 10.5 SW | 226 20.4 WSW | 247 0.00 14 0.81 49.4 58.1 2/14/19
2/14/19 1600 53.9 76 46.4 11.3 SW | 232 17.8 WSW | 254 0.00 23 0.81 49.4 58.1 2/14/19
2/14/19 1500 55.3 74 47.0 14.2 WSW | 240 25.0 WSW | 238 0.00 36 0.81 49.4 58.1 2/14/19
2/14/19 1400 53.2 84 48.4 10.8 SW | 234 18.8 WNW | 292 0.06 24 0.81 49.4 58.1 2/14/19
2/14/19 1300 52.1 86 48.2 6.5 SW | 236 15.2 SW | 218 0.01 30 0.75 49.4 58.1 2/14/19
2/14/19 1200 49.8 89 46.7 9.0 WSW | 243 19.4 WSW | 244 0.10 6 0.74 49.4 58.1 2/14/19
2/14/19 1100 51.6 90 48.8 11.0 SW | 236 19.7 WSW | 244 0.06 12 0.64 50.6 58.1 2/14/19
2/14/19 1000 53.5 85 48.9 12.5 SW | 223 19.5 SW | 219 0.09 12 0.58 51.4 58.1 2/14/19
2/14/19 0900 54.1 85 49.6 14.7 SW | 225 23.4 SSW | 211 0.00 17 0.49 51.5 58.1 2/14/19
2/14/19 0800 52.8 90 50.0 12.6 SW | 228 21.7 SW | 229 0.01 4 0.49 51.5 58.1 2/14/19
2/14/19 0700 54.2 91 51.7 11.1 WSW | 243 21.7 WSW | 242 0.02 0 0.48 51.5 58.1 2/14/19
2/14/19 0600 57.6 93 55.6 8.8 SSW | 193 19.4 SSW | 197 0.02 0 0.46 51.5 58.1 2/14/19
2/14/19 0500 56.9 94 55.4 5.2 SSE | 156 11.6 SE | 145 0.02 0 0.44 51.5 57.6 2/14/19
2/14/19 0400 55.7 94 54.2 6.3 SSE | 152 14.6 SE | 143 0.03 0 0.42 51.5 56.6 2/14/19
2/14/19 0300 52.8 98 52.2 3.2 ENE | 59 9.3 SSE | 152 0.06 0 0.39 51.5 55.0 2/14/19
2/14/19 0200 51.8 97 51.1 2.1 NNE | 15 7.1 NE | 53 0.25 0 0.33 51.5 52.7 2/14/19
2/14/19 0100 52.0 97 51.2 1.4 WSW | 258 6.1 ESE | 108 0.08 0 0.08 51.6 52.7 2/14/19
2/14/19 0000 51.9 98 51.2 3.3 ESE | 121 8.3 SE | 137 0.08 0 2.03 42.3 52.8 2/13/19
2/13/19 2300 49.6 97 48.9 0.6 NW | 325 3.6 NNW | 328 0.02 0 1.95 42.3 50.3 2/13/19
2/13/19 2200 48.8 97 48.1 1.1 NNW | 330 3.8 NW | 308 0.02 0 1.93 42.3 49.3 2/13/19
2/13/19 2100 48.5 97 47.8 1.0 NNE | 14 4.3 NW | 305 0.14 0 1.91 42.3 49.2 2/13/19
2/13/19 2000 48.1 97 47.4 1.2 SSW | 203 4.1 SW | 228 0.25 0 1.77 42.3 49.2 2/13/19
2/13/19 1900 48.2 97 47.5 0.7 ENE | 72 3.8 ESE | 105 0.04 0 1.52 42.3 49.2 2/13/19
2/13/19 1800 47.9 97 47.2 0.6 NNW | 339 3.6 NW | 321 0.02 0 1.48 42.3 49.2 2/13/19
2/13/19 1700 48.6 97 47.8 2.0 N | 349 6.1 N | 7 0.03 1 1.46 42.3 49.2 2/13/19
2/13/19 1600 48.8 97 47.9 2.1 NNW | 348 4.9 N | 8 0.10 3 1.43 42.3 49.1 2/13/19
2/13/19 1500 48.7 96 47.8 3.7 NE | 35 8.0 NE | 40 0.07 3 1.33 42.3 49.1 2/13/19
2/13/19 1400 48.2 96 47.0 2.8 NE | 45 6.4 ENE | 63 0.07 4 1.26 42.3 48.6 2/13/19
2/13/19 1300 46.7 94 45.1 2.8 NE | 41 6.9 NE | 49 0.03 2 1.19 42.3 47.5 2/13/19
2/13/19 1200 46.4 93 44.5 4.7 ENE | 69 13.8 ENE | 69 0.09 2 1.16 42.3 46.8 2/13/19
2/13/19 1100 46.2 92 44.0 8.7 E | 91 17.2 E | 94 0.03 4 1.07 42.3 46.7 2/13/19
2/13/19 1000 45.3 94 43.6 7.9 E | 94 18.0 ESE | 105 0.12 3 1.04 42.3 46.0 2/13/19
2/13/19 0900 44.3 94 42.8 8.2 ENE | 68 16.0 NE | 55 0.19 1 0.92 42.3 45.3 2/13/19
2/13/19 0800 44.8 91 42.3 8.7 NE | 55 17.8 ENE | 63 0.18 0 0.73 42.3 45.3 2/13/19
2/13/19 0700 44.4 92 42.4 6.8 NE | 36 10.8 NNE | 32 0.13 0 0.55 42.3 44.8 2/13/19
2/13/19 0600 44.4 93 42.5 8.2 N | 356 15.3 N | 349 0.20 0 0.42 42.3 44.7 2/13/19
2/13/19 0500 44.0 93 42.2 3.4 N | 360 8.3 NNW | 344 0.10 0 0.22 42.3 44.7 2/13/19
2/13/19 0400 43.4 94 41.7 1.5 N | 359 3.8 N | 350 0.04 0 0.12 42.3 43.7 2/13/19
2/13/19 0300 43.1 94 41.4 3.1 N | 8 5.6 N | 10 0.02 0 0.08 42.3 43.6 2/13/19
2/13/19 0200 42.9 93 41.0 3.6 NNE | 32 7.8 NE | 51 0.05 0 0.06 42.3 43.2 2/13/19
2/13/19 0100 42.6 92 40.5 3.3 NE | 44 6.8 NNE | 30 0.01 0 0.01 42.3 42.9 2/13/19
2/13/19 0000 42.2 92 40.0 1.4 NE | 43 4.4 NE | 47 0.06 0 0.18 34.0 46.1 2/12/19
2/12/19 2300 42.5 87 38.8 1.9 NE | 38 6.6 NE | 50 0.08 0 0.12 34.0 46.1 2/12/19
2/12/19 2200 44.0 76 36.9 4.6 ENE | 58 9.5 NE | 56 0.04 0 0.04 34.0 46.1 2/12/19
2/12/19 2100 45.0 71 36.1 3.8 ENE | 78 10.5 ENE | 63 0.00 0 0.00 34.0 46.1 2/12/19
2/12/19 2000 43.7 77 36.9 3.3 NE | 50 9.1 NE | 40 0.00 0 0.00 34.0 46.1 2/12/19
2/12/19 1900 43.2 79 37.2 0.8 NNE | 26 4.3 NE | 42 0.00 0 0.00 34.0 46.1 2/12/19
2/12/19 1800 44.7 72 36.2 1.7 NNW | 336 5.9 NE | 48 0.00 0 0.00 34.0 46.1 2/12/19
2/12/19 1700 45.4 69 35.9 2.3 NNE | 31 11.3 NE | 50 0.00 2 0.00 34.0 46.1 2/12/19
2/12/19 1600 44.8 70 35.8 6.5 NE | 45 12.3 ENE | 62 0.00 4 0.00 34.0 45.3 2/12/19
2/12/19 1500 44.5 71 35.8 5.1 NE | 53 12.3 NE | 48 0.00 7 0.00 34.0 45.3 2/12/19
2/12/19 1400 44.0 72 35.5 4.3 ENE | 60 10.5 NNE | 20 0.00 8 0.00 34.0 44.5 2/12/19
Tip: Bookmark this page for easy future reference